Maersk Iowa — KABL — position and weather

sailwx.info

Track history (hours):
 
Tides and Currents Weather Stations Pressure Air Temp Water Temp Dewpoint Dewpoint Depression Visibility Wind Speed Wind Dir Waves Ship Positions

Maersk Iowa

Owner: Maersk Line, Limited, Norfolk, VA. More information available from US FCC via Universal Licensing System and Coast Guard Vessel Documentation Center.

Last reported at 2017-Oct-22 05:59 UTC. Time now 2017-Oct-22 06:22 UTC.
Position N 29°37' W 095°00'.

Length 292 m; draft 10.9 m.

Type: Ship (hazmat cat A). MMSI: 367606000.

Date/timePositionNaut miles runAvg speedWind from/ knotsBaromVisibWave heightAir tempDewpointWater temp
2017-Oct-22 05:59N 29°37' W 095°00'0 0.0
2017-Oct-22 05:29N 29°37' W 095°00'0 0.0
2017-Oct-22 04:59N 29°37' W 095°00'0 0.0
2017-Oct-22 04:29N 29°37' W 095°00'0 0.0
2017-Oct-22 03:59N 29°37' W 095°00'0 0.0
2017-Oct-22 03:26N 29°37' W 095°00'0 0.0
2017-Oct-22 02:59N 29°37' W 095°00'0 0.0
2017-Oct-22 02:29N 29°37' W 095°00'0 0.0
2017-Oct-22 01:59N 29°37' W 095°00'0 0.0
2017-Oct-22 01:29N 29°37' W 095°00'0 0.0
2017-Oct-22 00:59N 29°37' W 095°00'0 0.0
2017-Oct-22 00:29N 29°37' W 095°00'0 0.0
2017-Oct-21 23:59N 29°37' W 095°00'0 0.0
2017-Oct-21 23:29N 29°37' W 095°00'0 0.0
2017-Oct-21 22:59N 29°37' W 095°00'0 0.0
2017-Oct-21 22:29N 29°37' W 095°00'0 0.0
2017-Oct-21 21:59N 29°37' W 095°00'0 0.0
2017-Oct-21 21:29N 29°37' W 095°00'0 0.0
2017-Oct-21 20:59N 29°37' W 095°00'0 0.0
2017-Oct-21 20:23N 29°37' W 095°00'0 0.0
2017-Oct-21 19:59N 29°37' W 095°00'0 0.0
2017-Oct-21 19:29N 29°37' W 095°00'0 0.0
2017-Oct-21 18:59N 29°37' W 095°00'0 0.0
2017-Oct-21 18:29N 29°37' W 095°00'0 0.0
2017-Oct-21 17:59N 29°37' W 095°00'0 0.0
2017-Oct-21 17:29N 29°37' W 095°00'0 0.0
2017-Oct-21 16:56N 29°37' W 095°00'0 0.0
2017-Oct-21 16:29N 29°37' W 095°00'0 0.0
2017-Oct-21 15:59N 29°37' W 095°00'0 0.0
2017-Oct-21 15:29N 29°37' W 095°00'0 0.0
2017-Oct-21 14:59N 29°37' W 095°00'0 0.0
2017-Oct-21 14:29N 29°37' W 095°00'0 0.0
2017-Oct-21 13:29N 29°37' W 095°00'0 0.0
2017-Oct-21 12:59N 29°37' W 095°00'0 0.0
2017-Oct-21 12:29N 29°37' W 095°00'0 0.0
2017-Oct-21 11:59N 29°37' W 095°00'0 0.0
2017-Oct-21 11:29N 29°37' W 095°00'0 0.0
2017-Oct-21 10:59N 29°37' W 095°00'0 0.0
2017-Oct-21 10:30N 29°37' W 095°00'1 1.5
2017-Oct-21 10:00N 29°37' W 095°01'2 4.9
2017-Oct-21 09:30N 29°37' W 094°58'3 6.5
2017-Oct-21 09:00N 29°35' W 094°56'4 8.2
2017-Oct-21 08:30N 29°31' W 094°53'611.6
2017-Oct-21 08:00N 29°26' W 094°50'21915.6
2017-Oct-20 18:00N 27°24' W 091°24'8814.6 090 / 171017.310.8 26.220.328.5
2017-Oct-20 12:00N 26°48' W 089°54'11519.2 090 / 191018.510.8 25.022.028.5
2017-Oct-20 06:00N 26°06' W 087°54'9916.4 090 / 181018.310.8 25.719.629.6
2017-Oct-20 00:00N 25°30' W 086°12'7214.3 060 / 201017.210.8 30.021.129.4
2017-Oct-19 19:00N 25°00' W 085°00'10715.3 050 / 181017.010.8 29.023.229.4
2017-Oct-19 12:00N 24°18' W 083°12'8714.6 040 / 131016.010.8 26.023.129.4
2017-Oct-19 06:00N 24°18' W 081°36'9515.8 050 / 151016.010.8 24.521.829.4
2017-Oct-19 00:00N 25°06' W 080°06'2210.8 070 / 101016.310.8 27.022.629.3
2017-Oct-18 21:56N 25°28' W 080°02'612.9
2017-Oct-18 21:30N 25°33' W 080°02'612.8
2017-Oct-18 21:00N 25°40' W 080°02'612.8
2017-Oct-18 20:30N 25°46' W 080°01'713.2
2017-Oct-18 20:00N 25°53' W 080°00'713.8
2017-Oct-18 19:30N 25°60' W 080°00'714.8
2017-Oct-18 19:00N 26°06' W 080°04'2 4.7
2017-Oct-18 18:30N 26°05' W 080°07'1 2.0
2017-Oct-18 18:00N 26°04' W 080°07'0 0.0
2017-Oct-18 17:30N 26°04' W 080°07'0 0.0
2017-Oct-18 17:00N 26°04' W 080°07'0 0.0
2017-Oct-18 16:25N 26°04' W 080°07'0 0.0
2017-Oct-18 15:52N 26°04' W 080°07'0 0.0
2017-Oct-18 15:28N 26°04' W 080°07'0 0.0
2017-Oct-18 14:55N 26°04' W 080°07'0 0.0
2017-Oct-18 13:58N 26°04' W 080°07'0 0.0
2017-Oct-18 13:28N 26°04' W 080°07'0 0.0
2017-Oct-18 12:58N 26°04' W 080°07'0 0.0
2017-Oct-18 12:28N 26°04' W 080°07'0 0.0
2017-Oct-18 11:58N 26°04' W 080°07'0 0.0
2017-Oct-18 11:28N 26°04' W 080°07'0 0.0
2017-Oct-18 10:58N 26°04' W 080°07'0 0.5
2017-Oct-18 10:30N 26°04' W 080°07'1 2.4
2017-Oct-18 10:00N 26°06' W 080°07'4 8.5
2017-Oct-18 09:31N 26°05' W 080°02'2 4.6
2017-Oct-18 09:00N 26°07' W 079°60'3 6.9
2017-Oct-18 08:30N 26°10' W 079°58'4 8.9
2017-Oct-18 08:00N 26°14' W 079°56'4 8.7
2017-Oct-18 07:30N 26°18' W 079°54'4 8.7
2017-Oct-18 07:00N 26°22' W 079°52'3 5.4
2017-Oct-18 06:30N 26°23' W 079°54'4 7.7
2017-Oct-18 06:01N 26°24' W 079°59'510.3
2017-Oct-18 05:30N 26°29' W 079°59'510.6
2017-Oct-18 05:00N 26°34' W 079°59'510.1
2017-Oct-18 04:30N 26°39' W 079°59'1010.4
2017-Oct-18 03:33N 26°49' W 079°59'211.4
2017-Oct-18 03:21N 26°52' W 079°59'410.6
2017-Oct-18 03:00N 26°55' W 079°59'510.7
2017-Oct-18 02:30N 27°01' W 079°59'3514.1
2017-Oct-18 00:00N 27°36' W 080°00'6611.0 040 / 141016.110.8 25.020.529.4
2017-Oct-17 18:00N 28°42' W 080°06'7813.0 020 / 151017.110.8 25.022.029.1
2017-Oct-17 12:00N 30°00' W 080°12'7412.3 020 / 211017.4 5.4 15.011.329.1
2017-Oct-17 06:00N 31°12' W 079°54'190 6.3 020 / 251017.910.8 22.518.228.2
2017-Oct-16 00:00N 33°18' W 077°06'10818.0 330 / 51018.210.8 25.022.029.0
2017-Oct-15 18:00N 34°36' W 075°36'1219.6 230 / 81019.510.8 25.020.528.2
2017-Oct-15 17:22N 34°47' W 075°30'11916.6
2017-Oct-15 10:12N 36°46' W 075°41'419.7
2017-Oct-15 10:00N 36°48' W 075°46'918.6
2017-Oct-15 09:30N 36°54' W 075°55'713.4
2017-Oct-15 08:58N 36°57' W 076°03'714.7
2017-Oct-15 08:30N 36°59' W 076°11'11 5.7
2017-Oct-15 06:38N 36°53' W 076°21'0 0.0
2017-Oct-15 06:30N 36°53' W 076°21'0 0.0
2017-Oct-15 06:00N 36°53' W 076°21'0 0.0
2017-Oct-15 05:27N 36°53' W 076°21'0 0.0
2017-Oct-15 04:57N 36°53' W 076°21'0 0.0
2017-Oct-15 03:09N 36°53' W 076°21'0 0.0
2017-Oct-15 03:00N 36°53' W 076°21'0 0.0
2017-Oct-15 02:30N 36°53' W 076°21'0 0.0
2017-Oct-15 01:57N 36°53' W 076°21'0 0.0
2017-Oct-15 01:30N 36°53' W 076°21'0 0.0
2017-Oct-15 00:54N 36°53' W 076°21'0 0.0
2017-Oct-15 00:24N 36°53' W 076°21'0 0.0
2017-Oct-14 23:57N 36°53' W 076°21'0 0.0
2017-Oct-14 21:33N 36°53' W 076°21'0 0.3
2017-Oct-14 21:30N 36°53' W 076°21'0 0.1
2017-Oct-14 20:54N 36°53' W 076°21'0 0.0
2017-Oct-14 20:27N 36°53' W 076°21'0 0.0
2017-Oct-14 20:00N 36°53' W 076°21'0 0.0
2017-Oct-14 19:30N 36°53' W 076°21'0 0.0
2017-Oct-14 18:57N 36°53' W 076°21'0 0.0
2017-Oct-14 17:51N 36°53' W 076°21'0 0.0
2017-Oct-14 17:30N 36°53' W 076°21'0 0.0
2017-Oct-14 17:01N 36°53' W 076°21'1 1.6
2017-Oct-14 16:31N 36°53' W 076°20'4 7.2
2017-Oct-14 16:00N 36°57' W 076°20'3 5.6
2017-Oct-14 15:29N 36°59' W 076°19'3 5.4
2017-Oct-14 15:00N 37°00' W 076°16'510.5
2017-Oct-14 14:30N 36°59' W 076°10'713.5
2017-Oct-14 14:00N 36°57' W 076°02'510.4
2017-Oct-14 13:30N 36°56' W 075°55'5 9.9
2017-Oct-14 13:00N 36°52' W 075°51'14711.3
2017-Oct-14 00:00N 37°06' W 072°48'11118.6 090 / 201021.6 5.4 23.021.523.1
2017-Oct-13 18:00N 37°24' W 070°30'20216.8 090 / 331023.410.8 24.920.828.2
2017-Oct-13 06:00N 38°18' W 066°24'11619.3 050 / 251025.210.8 21.111.527.7
2017-Oct-13 00:00N 39°00' W 064°06'12320.6 040 / 211025.310.8 19.011.825.5
2017-Oct-12 18:00N 39°42' W 061°36'10717.9 020 / 181022.710.8 20.7 9.823.1
2017-Oct-12 12:00N 40°18' W 059°24'11719.5 020 / 201021.310.8 21.014.226.0
2017-Oct-12 06:00N 41°00' W 057°00'   020 / 151017.810.8 20.010.925.7
Track history (hours):
 
Tides and Currents Weather Stations Pressure Air Temp Water Temp Dewpoint Dewpoint Depression Visibility Wind Speed Wind Dir Waves Ship Positions

Maersk Iowa

Owner: Maersk Line, Limited, Norfolk, VA. More information available from US FCC via Universal Licensing System and Coast Guard Vessel Documentation Center.

Last reported at 2017-Oct-22 05:59 UTC. Time now 2017-Oct-22 06:22 UTC.
Position N 29°37' W 095°00'.

Length 292 m; draft 10.9 m.

Type: Ship (hazmat cat A). MMSI: 367606000.

Date/timePositionNaut miles runAvg speedWind from/ knotsBaromVisibWave heightAir tempDewpointWater temp
2017-Oct-22 05:59N 29°37' W 095°00'0 0.0
2017-Oct-22 05:29N 29°37' W 095°00'0 0.0
2017-Oct-22 04:59N 29°37' W 095°00'0 0.0
2017-Oct-22 04:29N 29°37' W 095°00'0 0.0
2017-Oct-22 03:59N 29°37' W 095°00'0 0.0
2017-Oct-22 03:26N 29°37' W 095°00'0 0.0
2017-Oct-22 02:59N 29°37' W 095°00'0 0.0
2017-Oct-22 02:29N 29°37' W 095°00'0 0.0
2017-Oct-22 01:59N 29°37' W 095°00'0 0.0
2017-Oct-22 01:29N 29°37' W 095°00'0 0.0
2017-Oct-22 00:59N 29°37' W 095°00'0 0.0
2017-Oct-22 00:29N 29°37' W 095°00'0 0.0
2017-Oct-21 23:59N 29°37' W 095°00'0 0.0
2017-Oct-21 23:29N 29°37' W 095°00'0 0.0
2017-Oct-21 22:59N 29°37' W 095°00'0 0.0
2017-Oct-21 22:29N 29°37' W 095°00'0 0.0
2017-Oct-21 21:59N 29°37' W 095°00'0 0.0
2017-Oct-21 21:29N 29°37' W 095°00'0 0.0
2017-Oct-21 20:59N 29°37' W 095°00'0 0.0
2017-Oct-21 20:23N 29°37' W 095°00'0 0.0
2017-Oct-21 19:59N 29°37' W 095°00'0 0.0
2017-Oct-21 19:29N 29°37' W 095°00'0 0.0
2017-Oct-21 18:59N 29°37' W 095°00'0 0.0
2017-Oct-21 18:29N 29°37' W 095°00'0 0.0
2017-Oct-21 17:59N 29°37' W 095°00'0 0.0
2017-Oct-21 17:29N 29°37' W 095°00'0 0.0
2017-Oct-21 16:56N 29°37' W 095°00'0 0.0
2017-Oct-21 16:29N 29°37' W 095°00'0 0.0
2017-Oct-21 15:59N 29°37' W 095°00'0 0.0
2017-Oct-21 15:29N 29°37' W 095°00'0 0.0
2017-Oct-21 14:59N 29°37' W 095°00'0 0.0
2017-Oct-21 14:29N 29°37' W 095°00'0 0.0
2017-Oct-21 13:29N 29°37' W 095°00'0 0.0
2017-Oct-21 12:59N 29°37' W 095°00'0 0.0
2017-Oct-21 12:29N 29°37' W 095°00'0 0.0
2017-Oct-21 11:59N 29°37' W 095°00'0 0.0
2017-Oct-21 11:29N 29°37' W 095°00'0 0.0
2017-Oct-21 10:59N 29°37' W 095°00'0 0.0
2017-Oct-21 10:30N 29°37' W 095°00'1 1.5
2017-Oct-21 10:00N 29°37' W 095°01'2 4.9
2017-Oct-21 09:30N 29°37' W 094°58'3 6.5
2017-Oct-21 09:00N 29°35' W 094°56'4 8.2
2017-Oct-21 08:30N 29°31' W 094°53'611.6
2017-Oct-21 08:00N 29°26' W 094°50'21915.6
2017-Oct-20 18:00N 27°24' W 091°24'8814.6 090 / 171017.310.8 26.220.328.5
2017-Oct-20 12:00N 26°48' W 089°54'11519.2 090 / 191018.510.8 25.022.028.5
2017-Oct-20 06:00N 26°06' W 087°54'9916.4 090 / 181018.310.8 25.719.629.6
2017-Oct-20 00:00N 25°30' W 086°12'7214.3 060 / 201017.210.8 30.021.129.4
2017-Oct-19 19:00N 25°00' W 085°00'10715.3 050 / 181017.010.8 29.023.229.4
2017-Oct-19 12:00N 24°18' W 083°12'8714.6 040 / 131016.010.8 26.023.129.4
2017-Oct-19 06:00N 24°18' W 081°36'9515.8 050 / 151016.010.8 24.521.829.4
2017-Oct-19 00:00N 25°06' W 080°06'2210.8 070 / 101016.310.8 27.022.629.3
2017-Oct-18 21:56N 25°28' W 080°02'612.9
2017-Oct-18 21:30N 25°33' W 080°02'612.8
2017-Oct-18 21:00N 25°40' W 080°02'612.8
2017-Oct-18 20:30N 25°46' W 080°01'713.2
2017-Oct-18 20:00N 25°53' W 080°00'713.8
2017-Oct-18 19:30N 25°60' W 080°00'714.8
2017-Oct-18 19:00N 26°06' W 080°04'2 4.7
2017-Oct-18 18:30N 26°05' W 080°07'1 2.0
2017-Oct-18 18:00N 26°04' W 080°07'0 0.0
2017-Oct-18 17:30N 26°04' W 080°07'0 0.0
2017-Oct-18 17:00N 26°04' W 080°07'0 0.0
2017-Oct-18 16:25N 26°04' W 080°07'0 0.0
2017-Oct-18 15:52N 26°04' W 080°07'0 0.0
2017-Oct-18 15:28N 26°04' W 080°07'0 0.0
2017-Oct-18 14:55N 26°04' W 080°07'0 0.0
2017-Oct-18 13:58N 26°04' W 080°07'0 0.0
2017-Oct-18 13:28N 26°04' W 080°07'0 0.0
2017-Oct-18 12:58N 26°04' W 080°07'0 0.0
2017-Oct-18 12:28N 26°04' W 080°07'0 0.0
2017-Oct-18 11:58N 26°04' W 080°07'0 0.0
2017-Oct-18 11:28N 26°04' W 080°07'0 0.0
2017-Oct-18 10:58N 26°04' W 080°07'0 0.5
2017-Oct-18 10:30N 26°04' W 080°07'1 2.4
2017-Oct-18 10:00N 26°06' W 080°07'4 8.5
2017-Oct-18 09:31N 26°05' W 080°02'2 4.6
2017-Oct-18 09:00N 26°07' W 079°60'3 6.9
2017-Oct-18 08:30N 26°10' W 079°58'4 8.9
2017-Oct-18 08:00N 26°14' W 079°56'4 8.7
2017-Oct-18 07:30N 26°18' W 079°54'4 8.7
2017-Oct-18 07:00N 26°22' W 079°52'3 5.4
2017-Oct-18 06:30N 26°23' W 079°54'4 7.7
2017-Oct-18 06:01N 26°24' W 079°59'510.3
2017-Oct-18 05:30N 26°29' W 079°59'510.6
2017-Oct-18 05:00N 26°34' W 079°59'510.1
2017-Oct-18 04:30N 26°39' W 079°59'1010.4
2017-Oct-18 03:33N 26°49' W 079°59'211.4
2017-Oct-18 03:21N 26°52' W 079°59'410.6
2017-Oct-18 03:00N 26°55' W 079°59'510.7
2017-Oct-18 02:30N 27°01' W 079°59'3514.1
2017-Oct-18 00:00N 27°36' W 080°00'6611.0 040 / 141016.110.8 25.020.529.4
2017-Oct-17 18:00N 28°42' W 080°06'7813.0 020 / 151017.110.8 25.022.029.1
2017-Oct-17 12:00N 30°00' W 080°12'7412.3 020 / 211017.4 5.4 15.011.329.1
2017-Oct-17 06:00N 31°12' W 079°54'190 6.3 020 / 251017.910.8 22.518.228.2
2017-Oct-16 00:00N 33°18' W 077°06'10818.0 330 / 51018.210.8 25.022.029.0
2017-Oct-15 18:00N 34°36' W 075°36'1219.6 230 / 81019.510.8 25.020.528.2
2017-Oct-15 17:22N 34°47' W 075°30'11916.6
2017-Oct-15 10:12N 36°46' W 075°41'419.7
2017-Oct-15 10:00N 36°48' W 075°46'918.6
2017-Oct-15 09:30N 36°54' W 075°55'713.4
2017-Oct-15 08:58N 36°57' W 076°03'714.7
2017-Oct-15 08:30N 36°59' W 076°11'11 5.7
2017-Oct-15 06:38N 36°53' W 076°21'0 0.0
2017-Oct-15 06:30N 36°53' W 076°21'0 0.0
2017-Oct-15 06:00N 36°53' W 076°21'0 0.0
2017-Oct-15 05:27N 36°53' W 076°21'0 0.0
2017-Oct-15 04:57N 36°53' W 076°21'0 0.0
2017-Oct-15 03:09N 36°53' W 076°21'0 0.0
2017-Oct-15 03:00N 36°53' W 076°21'0 0.0
2017-Oct-15 02:30N 36°53' W 076°21'0 0.0
2017-Oct-15 01:57N 36°53' W 076°21'0 0.0
2017-Oct-15 01:30N 36°53' W 076°21'0 0.0
2017-Oct-15 00:54N 36°53' W 076°21'0 0.0
2017-Oct-15 00:24N 36°53' W 076°21'0 0.0
2017-Oct-14 23:57N 36°53' W 076°21'0 0.0
2017-Oct-14 21:33N 36°53' W 076°21'0 0.3
2017-Oct-14 21:30N 36°53' W 076°21'0 0.1
2017-Oct-14 20:54N 36°53' W 076°21'0 0.0
2017-Oct-14 20:27N 36°53' W 076°21'0 0.0
2017-Oct-14 20:00N 36°53' W 076°21'0 0.0
2017-Oct-14 19:30N 36°53' W 076°21'0 0.0
2017-Oct-14 18:57N 36°53' W 076°21'0 0.0
2017-Oct-14 17:51N 36°53' W 076°21'0 0.0
2017-Oct-14 17:30N 36°53' W 076°21'0 0.0
2017-Oct-14 17:01N 36°53' W 076°21'1 1.6
2017-Oct-14 16:31N 36°53' W 076°20'4 7.2
2017-Oct-14 16:00N 36°57' W 076°20'3 5.6
2017-Oct-14 15:29N 36°59' W 076°19'3 5.4
2017-Oct-14 15:00N 37°00' W 076°16'510.5
2017-Oct-14 14:30N 36°59' W 076°10'713.5
2017-Oct-14 14:00N 36°57' W 076°02'510.4
2017-Oct-14 13:30N 36°56' W 075°55'5 9.9
2017-Oct-14 13:00N 36°52' W 075°51'14711.3
2017-Oct-14 00:00N 37°06' W 072°48'11118.6 090 / 201021.6 5.4 23.021.523.1
2017-Oct-13 18:00N 37°24' W 070°30'20216.8 090 / 331023.410.8 24.920.828.2
2017-Oct-13 06:00N 38°18' W 066°24'11619.3 050 / 251025.210.8 21.111.527.7
2017-Oct-13 00:00N 39°00' W 064°06'12320.6 040 / 211025.310.8 19.011.825.5
2017-Oct-12 18:00N 39°42' W 061°36'10717.9 020 / 181022.710.8 20.7 9.823.1
2017-Oct-12 12:00N 40°18' W 059°24'11719.5 020 / 201021.310.8 21.014.226.0
2017-Oct-12 06:00N 41°00' W 057°00'   020 / 151017.810.8 20.010.925.7

Dump ship's entire track history